sensor_id;sensor_type;location;lat;lon;timestamp;pressure;altitude;pressure_sealevel;temperature;humidity
46211;BME280;52144;48.040;-1.594;2023-06-22T00:00:30;101186.53;;;24.23;73.95
46211;BME280;52144;48.040;-1.594;2023-06-22T00:02:58;101178.00;;;24.46;71.83
46211;BME280;52144;48.040;-1.594;2023-06-22T00:05:26;101181.47;;;24.28;73.31
46211;BME280;52144;48.040;-1.594;2023-06-22T00:07:54;101191.94;;;24.33;72.76
46211;BME280;52144;48.040;-1.594;2023-06-22T00:10:22;101182.38;;;24.19;73.41
46211;BME280;52144;48.040;-1.594;2023-06-22T00:12:51;101180.91;;;24.34;72.24
46211;BME280;52144;48.040;-1.594;2023-06-22T00:15:19;101176.69;;;24.02;74.64
46211;BME280;52144;48.040;-1.594;2023-06-22T00:17:47;101171.66;;;24.08;74.07
46211;BME280;52144;48.040;-1.594;2023-06-22T00:20:15;101169.75;;;24.18;73.94
46211;BME280;52144;48.040;-1.594;2023-06-22T00:22:44;101171.25;;;24.02;75.11
46211;BME280;52144;48.040;-1.594;2023-06-22T00:25:12;101173.06;;;24.12;74.29
46211;BME280;52144;48.040;-1.594;2023-06-22T00:27:40;101175.78;;;24.21;74.98
46211;BME280;52144;48.040;-1.594;2023-06-22T00:30:10;101173.06;;;24.21;73.96
46211;BME280;52144;48.040;-1.594;2023-06-22T00:32:38;101174.75;;;24.32;73.62
46211;BME280;52144;48.040;-1.594;2023-06-22T00:35:07;101177.53;;;24.13;74.41
46211;BME280;52144;48.040;-1.594;2023-06-22T00:37:35;101167.63;;;24.12;75.71
46211;BME280;52144;48.040;-1.594;2023-06-22T00:40:06;101175.75;;;24.31;74.00
46211;BME280;52144;48.040;-1.594;2023-06-22T00:42:35;101164.22;;;24.10;75.50
46211;BME280;52144;48.040;-1.594;2023-06-22T00:45:03;101162.53;;;23.89;77.59
46211;BME280;52144;48.040;-1.594;2023-06-22T00:47:33;101158.59;;;24.21;75.23
46211;BME280;52144;48.040;-1.594;2023-06-22T00:50:02;101165.19;;;24.18;76.09
46211;BME280;52144;48.040;-1.594;2023-06-22T00:52:31;101158.63;;;24.11;75.83
46211;BME280;52144;48.040;-1.594;2023-06-22T00:55:03;101161.38;;;24.01;76.14
46211;BME280;52144;48.040;-1.594;2023-06-22T00:57:31;101164.69;;;23.76;77.73
46211;BME280;52144;48.040;-1.594;2023-06-22T00:59:59;101151.72;;;24.17;76.12
46211;BME280;52144;48.040;-1.594;2023-06-22T01:02:27;101145.50;;;23.87;77.44
46211;BME280;52144;48.040;-1.594;2023-06-22T01:04:57;101153.50;;;23.98;77.20
46211;BME280;52144;48.040;-1.594;2023-06-22T01:07:31;101143.91;;;23.94;77.52
46211;BME280;52144;48.040;-1.594;2023-06-22T01:10:04;101132.91;;;23.67;78.55
46211;BME280;52144;48.040;-1.594;2023-06-22T01:12:38;101143.69;;;23.78;78.62
46211;BME280;52144;48.040;-1.594;2023-06-22T01:15:10;101144.63;;;23.96;77.31
46211;BME280;52144;48.040;-1.594;2023-06-22T01:17:41;101149.94;;;23.88;77.08
46211;BME280;52144;48.040;-1.594;2023-06-22T01:20:12;101153.19;;;24.01;77.24
46211;BME280;52144;48.040;-1.594;2023-06-22T01:22:52;101155.31;;;24.08;77.19
46211;BME280;52144;48.040;-1.594;2023-06-22T01:25:31;101155.63;;;24.05;77.11
46211;BME280;52144;48.040;-1.594;2023-06-22T01:28:08;101162.72;;;23.78;78.41
46211;BME280;52144;48.040;-1.594;2023-06-22T01:30:45;101158.81;;;23.90;78.14
46211;BME280;52144;48.040;-1.594;2023-06-22T01:33:15;101157.38;;;23.96;77.10
46211;BME280;52144;48.040;-1.594;2023-06-22T01:35:44;101150.97;;;23.58;79.25
46211;BME280;52144;48.040;-1.594;2023-06-22T01:38:12;101146.38;;;23.88;77.76
46211;BME280;52144;48.040;-1.594;2023-06-22T01:40:40;101148.63;;;24.02;77.36
46211;BME280;52144;48.040;-1.594;2023-06-22T01:43:08;101144.94;;;23.74;78.83
46211;BME280;52144;48.040;-1.594;2023-06-22T01:45:36;101139.22;;;23.77;78.47
46211;BME280;52144;48.040;-1.594;2023-06-22T01:48:06;101141.53;;;23.81;78.25
46211;BME280;52144;48.040;-1.594;2023-06-22T01:50:34;101140.66;;;23.61;79.67
46211;BME280;52144;48.040;-1.594;2023-06-22T01:53:02;101150.81;;;23.89;78.13
46211;BME280;52144;48.040;-1.594;2023-06-22T01:55:31;101151.84;;;23.78;78.78
46211;BME280;52144;48.040;-1.594;2023-06-22T01:57:59;101146.09;;;23.81;78.34
46211;BME280;52144;48.040;-1.594;2023-06-22T02:00:28;101147.25;;;23.78;78.55
46211;BME280;52144;48.040;-1.594;2023-06-22T02:03:00;101139.50;;;23.74;79.27
46211;BME280;52144;48.040;-1.594;2023-06-22T02:05:34;101142.91;;;23.95;77.37
46211;BME280;52144;48.040;-1.594;2023-06-22T02:08:07;101145.63;;;23.95;77.79
46211;BME280;52144;48.040;-1.594;2023-06-22T02:10:37;101139.91;;;23.89;78.92
46211;BME280;52144;48.040;-1.594;2023-06-22T02:13:09;101131.78;;;23.79;78.54
46211;BME280;52144;48.040;-1.594;2023-06-22T02:15:38;101134.47;;;23.89;78.24
46211;BME280;52144;48.040;-1.594;2023-06-22T02:18:06;101133.19;;;23.83;77.86
46211;BME280;52144;48.040;-1.594;2023-06-22T02:20:37;101128.03;;;23.70;79.45
46211;BME280;52144;48.040;-1.594;2023-06-22T02:23:06;101133.47;;;23.70;78.48
46211;BME280;52144;48.040;-1.594;2023-06-22T02:25:34;101131.78;;;23.69;78.95
46211;BME280;52144;48.040;-1.594;2023-06-22T02:28:03;101123.72;;;23.87;77.84
46211;BME280;52144;48.040;-1.594;2023-06-22T02:30:31;101129.47;;;23.74;78.07
46211;BME280;52144;48.040;-1.594;2023-06-22T02:32:59;101128.34;;;23.57;78.92
46211;BME280;52144;48.040;-1.594;2023-06-22T02:35:28;101122.34;;;23.54;80.04
46211;BME280;52144;48.040;-1.594;2023-06-22T02:37:59;101123.19;;;23.54;79.43
46211;BME280;52144;48.040;-1.594;2023-06-22T02:40:28;101122.91;;;23.57;78.49
46211;BME280;52144;48.040;-1.594;2023-06-22T02:42:57;101122.09;;;23.08;82.28
46211;BME280;52144;48.040;-1.594;2023-06-22T02:45:28;101126.53;;;23.29;81.35
46211;BME280;52144;48.040;-1.594;2023-06-22T02:47:57;101120.78;;;23.32;80.21
46211;BME280;52144;48.040;-1.594;2023-06-22T02:50:25;101119.78;;;23.23;80.62
46211;BME280;52144;48.040;-1.594;2023-06-22T02:52:53;101126.94;;;23.14;81.39
46211;BME280;52144;48.040;-1.594;2023-06-22T02:55:22;101130.50;;;23.34;80.49
46211;BME280;52144;48.040;-1.594;2023-06-22T02:57:51;101124.66;;;23.39;80.20
46211;BME280;52144;48.040;-1.594;2023-06-22T03:00:19;101125.06;;;23.44;78.37
46211;BME280;52144;48.040;-1.594;2023-06-22T03:02:48;101126.09;;;23.04;81.22
46211;BME280;52144;48.040;-1.594;2023-06-22T03:05:17;101128.66;;;23.25;81.09
46211;BME280;52144;48.040;-1.594;2023-06-22T03:07:45;101124.22;;;23.34;79.74
46211;BME280;52144;48.040;-1.594;2023-06-22T03:10:14;101128.34;;;23.57;78.89
46211;BME280;52144;48.040;-1.594;2023-06-22T03:12:43;101123.63;;;23.40;78.79
46211;BME280;52144;48.040;-1.594;2023-06-22T03:15:12;101131.22;;;23.36;79.20
46211;BME280;52144;48.040;-1.594;2023-06-22T03:17:40;101128.63;;;23.44;78.73
46211;BME280;52144;48.040;-1.594;2023-06-22T03:20:09;101123.50;;;23.32;80.06
46211;BME280;52144;48.040;-1.594;2023-06-22T03:22:39;101128.94;;;23.51;78.81
46211;BME280;52144;48.040;-1.594;2023-06-22T03:25:08;101129.78;;;23.42;78.77
46211;BME280;52144;48.040;-1.594;2023-06-22T03:27:39;101131.09;;;23.38;79.35
46211;BME280;52144;48.040;-1.594;2023-06-22T03:30:10;101140.09;;;23.48;77.56
46211;BME280;52144;48.040;-1.594;2023-06-22T03:32:39;101134.94;;;23.16;80.34
46211;BME280;52144;48.040;-1.594;2023-06-22T03:35:07;101131.53;;;23.33;78.43
46211;BME280;52144;48.040;-1.594;2023-06-22T03:37:35;101134.50;;;23.40;78.49
46211;BME280;52144;48.040;-1.594;2023-06-22T03:40:04;101131.50;;;23.23;79.19
46211;BME280;52144;48.040;-1.594;2023-06-22T03:42:33;101136.50;;;23.28;78.39
46211;BME280;52144;48.040;-1.594;2023-06-22T03:45:02;101144.25;;;23.23;79.31
46211;BME280;52144;48.040;-1.594;2023-06-22T03:47:32;101143.25;;;23.14;80.45
46211;BME280;52144;48.040;-1.594;2023-06-22T03:50:00;101142.69;;;23.20;79.32
46211;BME280;52144;48.040;-1.594;2023-06-22T03:52:30;101142.25;;;23.25;79.87
46211;BME280;52144;48.040;-1.594;2023-06-22T03:54:57;101140.97;;;23.19;80.67
46211;BME280;52144;48.040;-1.594;2023-06-22T03:57:25;101140.25;;;23.37;79.00
46211;BME280;52144;48.040;-1.594;2023-06-22T03:59:56;101142.41;;;23.33;79.65
46211;BME280;52144;48.040;-1.594;2023-06-22T04:02:24;101136.66;;;23.07;80.46
46211;BME280;52144;48.040;-1.594;2023-06-22T04:04:54;101144.81;;;23.17;80.15
46211;BME280;52144;48.040;-1.594;2023-06-22T04:07:22;101149.84;;;23.31;78.96
46211;BME280;52144;48.040;-1.594;2023-06-22T04:09:49;101153.97;;;23.26;78.77
46211;BME280;52144;48.040;-1.594;2023-06-22T04:12:17;101150.09;;;23.28;80.16
46211;BME280;52144;48.040;-1.594;2023-06-22T04:14:45;101150.69;;;23.12;79.86
46211;BME280;52144;48.040;-1.594;2023-06-22T04:17:13;101162.00;;;23.27;79.54
46211;BME280;52144;48.040;-1.594;2023-06-22T04:19:41;101162.13;;;23.26;79.28
46211;BME280;52144;48.040;-1.594;2023-06-22T04:22:10;101160.72;;;23.41;78.06
46211;BME280;52144;48.040;-1.594;2023-06-22T04:24:38;101169.84;;;23.30;78.61
46211;BME280;52144;48.040;-1.594;2023-06-22T04:27:06;101166.13;;;23.02;79.66
46211;BME280;52144;48.040;-1.594;2023-06-22T04:29:34;101164.69;;;23.17;79.11
46211;BME280;52144;48.040;-1.594;2023-06-22T04:32:02;101171.28;;;23.15;78.82
46211;BME280;52144;48.040;-1.594;2023-06-22T04:34:32;101172.28;;;23.14;78.75
46211;BME280;52144;48.040;-1.594;2023-06-22T04:36:59;101170.84;;;23.19;78.63
46211;BME280;52144;48.040;-1.594;2023-06-22T04:39:29;101174.44;;;23.10;78.97
46211;BME280;52144;48.040;-1.594;2023-06-22T04:41:58;101173.34;;;22.92;79.46
46211;BME280;52144;48.040;-1.594;2023-06-22T04:44:27;101172.44;;;22.31;83.18
46211;BME280;52144;48.040;-1.594;2023-06-22T04:46:57;101170.69;;;22.61;81.47
46211;BME280;52144;48.040;-1.594;2023-06-22T04:49:27;101162.31;;;22.74;81.08
46211;BME280;52144;48.040;-1.594;2023-06-22T04:51:59;101159.25;;;22.27;82.82
46211;BME280;52144;48.040;-1.594;2023-06-22T04:54:29;101176.53;;;22.56;80.75
46211;BME280;52144;48.040;-1.594;2023-06-22T04:56:59;101170.66;;;22.51;80.88
46211;BME280;52144;48.040;-1.594;2023-06-22T04:59:28;101175.00;;;22.12;83.44
46211;BME280;52144;48.040;-1.594;2023-06-22T05:01:57;101169.97;;;22.59;80.98
46211;BME280;52144;48.040;-1.594;2023-06-22T05:04:26;101175.44;;;22.69;81.06
46211;BME280;52144;48.040;-1.594;2023-06-22T05:06:55;101172.63;;;22.90;79.36
46211;BME280;52144;48.040;-1.594;2023-06-22T05:09:22;101184.59;;;22.77;79.53
46211;BME280;52144;48.040;-1.594;2023-06-22T05:11:52;101183.88;;;22.66;79.82
46211;BME280;52144;48.040;-1.594;2023-06-22T05:14:20;101177.91;;;22.91;78.74
46211;BME280;52144;48.040;-1.594;2023-06-22T05:16:48;101183.88;;;23.06;78.13
46211;BME280;52144;48.040;-1.594;2023-06-22T05:19:18;101190.88;;;22.68;79.07
46211;BME280;52144;48.040;-1.594;2023-06-22T05:21:46;101169.25;;;23.07;79.09
46211;BME280;52144;48.040;-1.594;2023-06-22T05:24:13;101180.06;;;22.88;79.21
46211;BME280;52144;48.040;-1.594;2023-06-22T05:26:41;101181.03;;;22.77;79.20
46211;BME280;52144;48.040;-1.594;2023-06-22T05:29:10;101181.88;;;22.77;79.14
46211;BME280;52144;48.040;-1.594;2023-06-22T05:31:38;101172.53;;;22.60;79.67
46211;BME280;52144;48.040;-1.594;2023-06-22T05:34:07;101173.19;;;22.74;79.67
46211;BME280;52144;48.040;-1.594;2023-06-22T05:36:34;101168.59;;;22.13;81.68
46211;BME280;52144;48.040;-1.594;2023-06-22T05:39:11;101172.59;;;22.70;78.58
46211;BME280;52144;48.040;-1.594;2023-06-22T05:41:39;101172.50;;;22.91;78.01
46211;BME280;52144;48.040;-1.594;2023-06-22T05:44:07;101177.31;;;23.38;76.78
46211;BME280;52144;48.040;-1.594;2023-06-22T05:46:36;101182.75;;;23.57;75.08
46211;BME280;52144;48.040;-1.594;2023-06-22T05:49:04;101177.50;;;22.96;76.19
46211;BME280;52144;48.040;-1.594;2023-06-22T05:51:32;101186.28;;;22.69;77.63
46211;BME280;52144;48.040;-1.594;2023-06-22T05:54:00;101181.88;;;23.28;75.87
46211;BME280;52144;48.040;-1.594;2023-06-22T05:56:27;101191.91;;;23.56;75.53
46211;BME280;52144;48.040;-1.594;2023-06-22T05:58:55;101184.19;;;23.22;75.96
46211;BME280;52144;48.040;-1.594;2023-06-22T06:01:23;101184.75;;;23.36;75.56
46211;BME280;52144;48.040;-1.594;2023-06-22T06:03:53;101192.19;;;23.53;73.25
46211;BME280;52144;48.040;-1.594;2023-06-22T06:06:21;101193.47;;;23.30;74.08
46211;BME280;52144;48.040;-1.594;2023-06-22T06:08:55;101195.19;;;23.50;71.89
46211;BME280;52144;48.040;-1.594;2023-06-22T06:11:23;101200.50;;;23.91;70.25
46211;BME280;52144;48.040;-1.594;2023-06-22T06:13:51;101199.34;;;23.74;71.04
46211;BME280;52144;48.040;-1.594;2023-06-22T06:16:19;101202.50;;;23.98;70.78
46211;BME280;52144;48.040;-1.594;2023-06-22T06:18:46;101206.22;;;23.97;69.13
46211;BME280;52144;48.040;-1.594;2023-06-22T06:21:17;101206.75;;;24.20;68.09
46211;BME280;52144;48.040;-1.594;2023-06-22T06:23:45;101210.41;;;23.92;69.39
46211;BME280;52144;48.040;-1.594;2023-06-22T06:26:13;101207.81;;;23.51;70.73
46211;BME280;52144;48.040;-1.594;2023-06-22T06:28:43;101206.50;;;23.94;69.08
46211;BME280;52144;48.040;-1.594;2023-06-22T06:31:11;101203.34;;;23.70;69.92
46211;BME280;52144;48.040;-1.594;2023-06-22T06:33:43;101209.09;;;23.86;70.24
46211;BME280;52144;48.040;-1.594;2023-06-22T06:36:11;101209.88;;;24.16;68.07
46211;BME280;52144;48.040;-1.594;2023-06-22T06:38:40;101211.53;;;24.56;68.90
46211;BME280;52144;48.040;-1.594;2023-06-22T06:41:08;101206.19;;;24.17;67.96
46211;BME280;52144;48.040;-1.594;2023-06-22T06:43:36;101211.44;;;24.28;67.68
46211;BME280;52144;48.040;-1.594;2023-06-22T06:46:04;101206.50;;;23.94;68.71
46211;BME280;52144;48.040;-1.594;2023-06-22T06:48:32;101213.03;;;24.21;67.82
46211;BME280;52144;48.040;-1.594;2023-06-22T06:51:00;101214.41;;;23.78;69.20
46211;BME280;52144;48.040;-1.594;2023-06-22T06:53:27;101217.34;;;24.14;67.52
46211;BME280;52144;48.040;-1.594;2023-06-22T06:55:57;101211.97;;;24.41;65.28
46211;BME280;52144;48.040;-1.594;2023-06-22T06:58:25;101222.91;;;24.22;66.93
46211;BME280;52144;48.040;-1.594;2023-06-22T07:00:53;101224.06;;;24.76;65.30
46211;BME280;52144;48.040;-1.594;2023-06-22T07:03:20;101228.72;;;24.56;66.11
46211;BME280;52144;48.040;-1.594;2023-06-22T07:05:49;101228.22;;;24.14;67.75
46211;BME280;52144;48.040;-1.594;2023-06-22T07:08:17;101238.88;;;24.64;65.29
46211;BME280;52144;48.040;-1.594;2023-06-22T07:10:44;101228.88;;;24.55;64.22
46211;BME280;52144;48.040;-1.594;2023-06-22T07:13:14;101241.78;;;24.90;65.32
46211;BME280;52144;48.040;-1.594;2023-06-22T07:15:41;101252.03;;;25.06;63.80
46211;BME280;52144;48.040;-1.594;2023-06-22T07:18:09;101251.47;;;25.30;62.54
46211;BME280;52144;48.040;-1.594;2023-06-22T07:20:37;101255.53;;;25.44;63.26
46211;BME280;52144;48.040;-1.594;2023-06-22T07:23:06;101263.38;;;25.29;64.21
46211;BME280;52144;48.040;-1.594;2023-06-22T07:25:33;101260.59;;;24.83;64.46
46211;BME280;52144;48.040;-1.594;2023-06-22T07:28:03;101262.53;;;25.29;63.21
46211;BME280;52144;48.040;-1.594;2023-06-22T07:30:33;101265.09;;;25.02;63.33
46211;BME280;52144;48.040;-1.594;2023-06-22T07:33:02;101265.34;;;25.37;64.54
46211;BME280;52144;48.040;-1.594;2023-06-22T07:35:32;101263.72;;;25.26;63.72
46211;BME280;52144;48.040;-1.594;2023-06-22T07:38:00;101262.47;;;25.74;62.47
46211;BME280;52144;48.040;-1.594;2023-06-22T07:40:31;101265.41;;;25.27;63.31
46211;BME280;52144;48.040;-1.594;2023-06-22T07:42:59;101269.06;;;25.36;63.28
46211;BME280;52144;48.040;-1.594;2023-06-22T07:45:27;101272.81;;;24.79;65.57
46211;BME280;52144;48.040;-1.594;2023-06-22T07:47:56;101272.50;;;25.38;62.78
46211;BME280;52144;48.040;-1.594;2023-06-22T07:50:24;101274.31;;;25.47;63.50
46211;BME280;52144;48.040;-1.594;2023-06-22T07:52:53;101281.28;;;25.77;61.50
46211;BME280;52144;48.040;-1.594;2023-06-22T07:55:20;101285.81;;;25.69;61.96
46211;BME280;52144;48.040;-1.594;2023-06-22T07:57:49;101279.63;;;26.20;60.21
46211;BME280;52144;48.040;-1.594;2023-06-22T08:00:18;101287.16;;;26.00;60.69
46211;BME280;52144;48.040;-1.594;2023-06-22T08:02:47;101284.34;;;25.92;60.34
46211;BME280;52144;48.040;-1.594;2023-06-22T08:05:16;101296.06;;;25.39;60.92
46211;BME280;52144;48.040;-1.594;2023-06-22T08:07:48;101283.25;;;25.85;61.88
46211;BME280;52144;48.040;-1.594;2023-06-22T08:10:17;101289.63;;;26.30;60.43
46211;BME280;52144;48.040;-1.594;2023-06-22T08:12:45;101287.00;;;26.02;61.03
46211;BME280;52144;48.040;-1.594;2023-06-22T08:15:13;101288.03;;;26.53;59.25
46211;BME280;52144;48.040;-1.594;2023-06-22T08:17:40;101305.97;;;26.56;60.69
46211;BME280;52144;48.040;-1.594;2023-06-22T08:20:09;101300.31;;;25.69;60.59
46211;BME280;52144;48.040;-1.594;2023-06-22T08:22:40;101314.25;;;25.66;59.41
46211;BME280;52144;48.040;-1.594;2023-06-22T08:25:09;101303.19;;;26.48;59.96
46211;BME280;52144;48.040;-1.594;2023-06-22T08:27:37;101296.53;;;26.68;58.23
46211;BME280;52144;48.040;-1.594;2023-06-22T08:30:06;101298.91;;;27.32;57.03
46211;BME280;52144;48.040;-1.594;2023-06-22T08:32:34;101308.75;;;27.16;56.95
46211;BME280;52144;48.040;-1.594;2023-06-22T08:35:03;101306.59;;;26.94;56.59
46211;BME280;52144;48.040;-1.594;2023-06-22T08:37:33;101312.22;;;26.66;56.86
46211;BME280;52144;48.040;-1.594;2023-06-22T08:40:05;101316.75;;;26.13;56.32
46211;BME280;52144;48.040;-1.594;2023-06-22T08:42:35;101319.13;;;26.08;56.24
46211;BME280;52144;48.040;-1.594;2023-06-22T08:45:03;101318.53;;;26.40;57.11
46211;BME280;52144;48.040;-1.594;2023-06-22T08:47:31;101313.81;;;26.51;57.36
46211;BME280;52144;48.040;-1.594;2023-06-22T08:49:59;101325.81;;;27.10;55.97
46211;BME280;52144;48.040;-1.594;2023-06-22T08:52:29;101320.84;;;27.40;54.79
46211;BME280;52144;48.040;-1.594;2023-06-22T08:54:57;101325.44;;;27.39;56.74
46211;BME280;52144;48.040;-1.594;2023-06-22T08:57:27;101323.53;;;26.97;55.74
46211;BME280;52144;48.040;-1.594;2023-06-22T08:59:54;101325.00;;;26.84;53.70
46211;BME280;52144;48.040;-1.594;2023-06-22T09:02:25;101323.22;;;27.43;54.94
46211;BME280;52144;48.040;-1.594;2023-06-22T09:04:58;101318.91;;;27.32;55.66
46211;BME280;52144;48.040;-1.594;2023-06-22T09:07:26;101315.50;;;28.06;53.80
46211;BME280;52144;48.040;-1.594;2023-06-22T09:09:55;101319.56;;;27.77;54.76
46211;BME280;52144;48.040;-1.594;2023-06-22T09:12:23;101320.19;;;27.54;52.94
46211;BME280;52144;48.040;-1.594;2023-06-22T09:14:55;101319.53;;;27.69;52.62
46211;BME280;52144;48.040;-1.594;2023-06-22T09:17:22;101326.03;;;27.68;53.35
46211;BME280;52144;48.040;-1.594;2023-06-22T09:19:50;101329.19;;;27.38;54.12
46211;BME280;52144;48.040;-1.594;2023-06-22T09:22:18;101325.28;;;27.41;53.49
46211;BME280;52144;48.040;-1.594;2023-06-22T09:24:46;101336.56;;;27.89;54.23
46211;BME280;52144;48.040;-1.594;2023-06-22T09:27:14;101344.38;;;27.84;51.43
46211;BME280;52144;48.040;-1.594;2023-06-22T09:29:42;101345.28;;;27.50;52.57
46211;BME280;52144;48.040;-1.594;2023-06-22T09:32:11;101341.56;;;27.51;52.74
46211;BME280;52144;48.040;-1.594;2023-06-22T09:34:39;101339.91;;;27.66;53.69
46211;BME280;52144;48.040;-1.594;2023-06-22T09:37:07;101351.09;;;27.89;52.86
46211;BME280;52144;48.040;-1.594;2023-06-22T09:39:35;101356.97;;;28.52;52.43
46211;BME280;52144;48.040;-1.594;2023-06-22T09:42:03;101358.63;;;27.95;51.31
46211;BME280;52144;48.040;-1.594;2023-06-22T09:44:32;101353.38;;;27.59;52.12
46211;BME280;52144;48.040;-1.594;2023-06-22T09:47:00;101352.84;;;28.31;51.48
46211;BME280;52144;48.040;-1.594;2023-06-22T09:49:29;101357.97;;;28.67;50.74
46211;BME280;52144;48.040;-1.594;2023-06-22T09:52:14;101364.44;;;27.50;52.03
46211;BME280;52144;48.040;-1.594;2023-06-22T09:54:42;101370.16;;;27.56;51.99
46211;BME280;52144;48.040;-1.594;2023-06-22T09:57:10;101369.94;;;28.17;51.91
46211;BME280;52144;48.040;-1.594;2023-06-22T09:59:37;101365.34;;;28.50;51.13
46211;BME280;52144;48.040;-1.594;2023-06-22T10:02:06;101369.47;;;29.27;49.98
46211;BME280;52144;48.040;-1.594;2023-06-22T10:04:36;101362.41;;;28.76;50.00
46211;BME280;52144;48.040;-1.594;2023-06-22T10:07:04;101363.97;;;28.38;49.07
46211;BME280;52144;48.040;-1.594;2023-06-22T10:09:32;101367.19;;;28.00;49.29
46211;BME280;52144;48.040;-1.594;2023-06-22T10:12:00;101368.25;;;28.24;49.09
46211;BME280;52144;48.040;-1.594;2023-06-22T10:14:28;101368.75;;;28.77;50.35
46211;BME280;52144;48.040;-1.594;2023-06-22T10:16:56;101374.28;;;29.25;49.27
46211;BME280;52144;48.040;-1.594;2023-06-22T10:19:25;101373.03;;;28.30;51.18
46211;BME280;52144;48.040;-1.594;2023-06-22T10:21:54;101375.41;;;28.09;51.73
46211;BME280;52144;48.040;-1.594;2023-06-22T10:24:22;101371.13;;;27.47;54.22
46211;BME280;52144;48.040;-1.594;2023-06-22T10:26:50;101380.88;;;27.50;54.36
46211;BME280;52144;48.040;-1.594;2023-06-22T10:29:18;101370.81;;;28.42;53.34
46211;BME280;52144;48.040;-1.594;2023-06-22T10:31:46;101370.44;;;28.78;51.29
46211;BME280;52144;48.040;-1.594;2023-06-22T10:34:13;101375.56;;;27.91;53.44
46211;BME280;52144;48.040;-1.594;2023-06-22T10:36:42;101365.34;;;28.34;52.16
46211;BME280;52144;48.040;-1.594;2023-06-22T10:39:11;101368.94;;;28.59;51.54
46211;BME280;52144;48.040;-1.594;2023-06-22T10:41:39;101360.50;;;28.85;51.14
46211;BME280;52144;48.040;-1.594;2023-06-22T10:44:06;101373.19;;;29.42;50.00
46211;BME280;52144;48.040;-1.594;2023-06-22T10:46:34;101373.47;;;29.16;49.68
46211;BME280;52144;48.040;-1.594;2023-06-22T10:49:02;101355.41;;;29.30;50.75
46211;BME280;52144;48.040;-1.594;2023-06-22T10:51:30;101366.09;;;29.00;50.04
46211;BME280;52144;48.040;-1.594;2023-06-22T10:53:58;101382.69;;;29.71;49.92
46211;BME280;52144;48.040;-1.594;2023-06-22T10:56:27;101380.78;;;29.71;50.05
46211;BME280;52144;48.040;-1.594;2023-06-22T10:58:55;101390.03;;;29.78;50.38
46211;BME280;52144;48.040;-1.594;2023-06-22T11:01:23;101383.94;;;29.60;49.57
46211;BME280;52144;48.040;-1.594;2023-06-22T11:04:02;101383.59;;;29.94;51.03
46211;BME280;52144;48.040;-1.594;2023-06-22T11:06:31;101372.44;;;29.09;51.09
46211;BME280;52144;48.040;-1.594;2023-06-22T11:08:58;101377.97;;;29.48;51.42
46211;BME280;52144;48.040;-1.594;2023-06-22T11:11:30;101385.63;;;29.61;51.17
46211;BME280;52144;48.040;-1.594;2023-06-22T11:13:58;101394.44;;;29.48;51.45
46211;BME280;52144;48.040;-1.594;2023-06-22T11:16:27;101399.44;;;29.84;51.33
46211;BME280;52144;48.040;-1.594;2023-06-22T11:18:55;101392.44;;;29.34;51.08
46211;BME280;52144;48.040;-1.594;2023-06-22T11:21:22;101399.09;;;29.48;51.28
46211;BME280;52144;48.040;-1.594;2023-06-22T11:23:50;101403.16;;;29.60;49.82
46211;BME280;52144;48.040;-1.594;2023-06-22T11:26:18;101404.47;;;30.04;49.68
46211;BME280;52144;48.040;-1.594;2023-06-22T11:28:49;101399.63;;;30.37;49.39
46211;BME280;52144;48.040;-1.594;2023-06-22T11:31:16;101405.50;;;30.03;49.30
46211;BME280;52144;48.040;-1.594;2023-06-22T11:33:52;101397.63;;;30.31;51.36
46211;BME280;52144;48.040;-1.594;2023-06-22T11:36:20;101399.06;;;30.42;48.82
46211;BME280;52144;48.040;-1.594;2023-06-22T11:38:48;101394.53;;;30.03;50.81
46211;BME280;52144;48.040;-1.594;2023-06-22T11:41:16;101398.00;;;29.01;51.38
46211;BME280;52144;48.040;-1.594;2023-06-22T11:43:44;101396.88;;;29.35;51.36
46211;BME280;52144;48.040;-1.594;2023-06-22T11:46:13;101404.53;;;28.84;51.50
46211;BME280;52144;48.040;-1.594;2023-06-22T11:48:41;101399.75;;;28.77;52.17
46211;BME280;52144;48.040;-1.594;2023-06-22T11:51:08;101389.53;;;29.75;50.31
46211;BME280;52144;48.040;-1.594;2023-06-22T11:53:36;101394.09;;;30.14;49.88
46211;BME280;52144;48.040;-1.594;2023-06-22T11:56:04;101392.97;;;30.00;50.15
46211;BME280;52144;48.040;-1.594;2023-06-22T11:58:34;101387.88;;;29.18;50.93
46211;BME280;52144;48.040;-1.594;2023-06-22T12:01:01;101393.84;;;30.00;50.29
46211;BME280;52144;48.040;-1.594;2023-06-22T12:03:31;101391.84;;;30.40;49.09
46211;BME280;52144;48.040;-1.594;2023-06-22T12:05:59;101392.13;;;30.31;49.14
46211;BME280;52144;48.040;-1.594;2023-06-22T12:08:27;101395.94;;;29.03;51.17
46211;BME280;52144;48.040;-1.594;2023-06-22T12:10:55;101391.19;;;29.45;51.08
46211;BME280;52144;48.040;-1.594;2023-06-22T12:13:22;101392.69;;;30.18;49.34
46211;BME280;52144;48.040;-1.594;2023-06-22T12:15:50;101394.47;;;30.34;48.08
46211;BME280;52144;48.040;-1.594;2023-06-22T12:18:19;101394.16;;;30.52;48.79
46211;BME280;52144;48.040;-1.594;2023-06-22T12:20:49;101391.31;;;31.28;48.01
46211;BME280;52144;48.040;-1.594;2023-06-22T12:23:17;101401.59;;;31.04;46.96
46211;BME280;52144;48.040;-1.594;2023-06-22T12:25:46;101394.19;;;31.19;47.54
46211;BME280;52144;48.040;-1.594;2023-06-22T12:28:14;101392.03;;;31.81;46.47
46211;BME280;52144;48.040;-1.594;2023-06-22T12:30:41;101387.75;;;31.12;47.30
46211;BME280;52144;48.040;-1.594;2023-06-22T12:33:09;101390.66;;;30.12;48.63
46211;BME280;52144;48.040;-1.594;2023-06-22T12:35:37;101398.19;;;29.55;50.01
46211;BME280;52144;48.040;-1.594;2023-06-22T12:38:07;101404.28;;;30.05;48.56
46211;BME280;52144;48.040;-1.594;2023-06-22T12:40:35;101406.34;;;30.72;48.13
46211;BME280;52144;48.040;-1.594;2023-06-22T12:43:03;101406.88;;;30.91;47.33
46211;BME280;52144;48.040;-1.594;2023-06-22T12:45:31;101409.25;;;31.38;46.11
46211;BME280;52144;48.040;-1.594;2023-06-22T12:48:00;101403.66;;;31.32;46.18